sensor_id;sensor_type;location;lat;lon;timestamp;P1;durP1;ratioP1;P2;durP2;ratioP2
7080;SDS011;3582;51.506;11.948;2024-01-16T00:01:13;5.57;;;5.00;;
7080;SDS011;3582;51.506;11.948;2024-01-16T00:03:39;5.35;;;4.80;;
7080;SDS011;3582;51.506;11.948;2024-01-16T00:06:05;4.60;;;4.30;;
7080;SDS011;3582;51.506;11.948;2024-01-16T00:08:32;8.63;;;5.38;;
7080;SDS011;3582;51.506;11.948;2024-01-16T00:10:58;8.25;;;5.35;;
7080;SDS011;3582;51.506;11.948;2024-01-16T00:13:23;6.07;;;5.50;;
7080;SDS011;3582;51.506;11.948;2024-01-16T00:15:49;5.20;;;4.70;;
7080;SDS011;3582;51.506;11.948;2024-01-16T00:18:15;5.63;;;5.10;;
7080;SDS011;3582;51.506;11.948;2024-01-16T00:20:41;8.77;;;5.13;;
7080;SDS011;3582;51.506;11.948;2024-01-16T00:23:07;6.73;;;4.73;;
7080;SDS011;3582;51.506;11.948;2024-01-16T00:25:34;5.10;;;4.70;;
7080;SDS011;3582;51.506;11.948;2024-01-16T00:28:00;7.57;;;5.35;;
7080;SDS011;3582;51.506;11.948;2024-01-16T00:30:26;8.00;;;5.18;;
7080;SDS011;3582;51.506;11.948;2024-01-16T00:32:52;5.73;;;4.83;;
7080;SDS011;3582;51.506;11.948;2024-01-16T00:35:18;4.30;;;3.90;;
7080;SDS011;3582;51.506;11.948;2024-01-16T00:37:44;7.05;;;4.25;;
7080;SDS011;3582;51.506;11.948;2024-01-16T00:40:10;6.10;;;5.13;;
7080;SDS011;3582;51.506;11.948;2024-01-16T00:42:36;8.82;;;4.70;;
7080;SDS011;3582;51.506;11.948;2024-01-16T00:45:03;6.40;;;4.65;;
7080;SDS011;3582;51.506;11.948;2024-01-16T00:47:29;4.82;;;4.15;;
7080;SDS011;3582;51.506;11.948;2024-01-16T00:49:55;9.27;;;4.40;;
7080;SDS011;3582;51.506;11.948;2024-01-16T00:52:21;4.37;;;4.07;;
7080;SDS011;3582;51.506;11.948;2024-01-16T00:54:47;6.72;;;4.25;;
7080;SDS011;3582;51.506;11.948;2024-01-16T00:57:13;3.93;;;3.60;;
7080;SDS011;3582;51.506;11.948;2024-01-16T00:59:41;5.93;;;4.45;;
7080;SDS011;3582;51.506;11.948;2024-01-16T01:02:07;3.97;;;3.57;;
7080;SDS011;3582;51.506;11.948;2024-01-16T01:04:36;3.88;;;3.47;;
7080;SDS011;3582;51.506;11.948;2024-01-16T01:07:03;7.03;;;3.08;;
7080;SDS011;3582;51.506;11.948;2024-01-16T01:09:29;3.40;;;2.85;;
7080;SDS011;3582;51.506;11.948;2024-01-16T01:11:55;4.18;;;3.65;;
7080;SDS011;3582;51.506;11.948;2024-01-16T01:14:21;4.63;;;4.10;;
7080;SDS011;3582;51.506;11.948;2024-01-16T01:16:47;3.63;;;3.33;;
7080;SDS011;3582;51.506;11.948;2024-01-16T01:19:13;5.00;;;4.43;;
7080;SDS011;3582;51.506;11.948;2024-01-16T01:21:39;6.03;;;3.73;;
7080;SDS011;3582;51.506;11.948;2024-01-16T01:24:05;5.22;;;3.58;;
7080;SDS011;3582;51.506;11.948;2024-01-16T01:26:31;5.97;;;3.07;;
7080;SDS011;3582;51.506;11.948;2024-01-16T01:28:56;5.40;;;3.17;;
7080;SDS011;3582;51.506;11.948;2024-01-16T01:31:22;3.77;;;2.30;;
7080;SDS011;3582;51.506;11.948;2024-01-16T01:33:49;3.13;;;2.83;;
7080;SDS011;3582;51.506;11.948;2024-01-16T01:36:15;3.67;;;2.67;;
7080;SDS011;3582;51.506;11.948;2024-01-16T01:38:41;3.00;;;2.80;;
7080;SDS011;3582;51.506;11.948;2024-01-16T01:41:07;4.40;;;2.53;;
7080;SDS011;3582;51.506;11.948;2024-01-16T01:43:33;2.75;;;2.20;;
7080;SDS011;3582;51.506;11.948;2024-01-16T01:46:09;3.35;;;2.20;;
7080;SDS011;3582;51.506;11.948;2024-01-16T01:48:36;3.28;;;2.55;;
7080;SDS011;3582;51.506;11.948;2024-01-16T01:51:03;4.30;;;2.35;;
7080;SDS011;3582;51.506;11.948;2024-01-16T01:53:30;3.70;;;2.50;;
7080;SDS011;3582;51.506;11.948;2024-01-16T01:55:56;8.18;;;2.45;;
7080;SDS011;3582;51.506;11.948;2024-01-16T01:58:22;3.63;;;2.25;;
7080;SDS011;3582;51.506;11.948;2024-01-16T02:00:49;3.72;;;2.55;;
7080;SDS011;3582;51.506;11.948;2024-01-16T02:03:15;2.70;;;2.40;;
7080;SDS011;3582;51.506;11.948;2024-01-16T02:05:41;2.80;;;2.40;;
7080;SDS011;3582;51.506;11.948;2024-01-16T02:08:07;2.05;;;1.95;;
7080;SDS011;3582;51.506;11.948;2024-01-16T02:10:34;2.25;;;2.05;;
7080;SDS011;3582;51.506;11.948;2024-01-16T02:13:01;2.60;;;2.40;;
7080;SDS011;3582;51.506;11.948;2024-01-16T02:15:27;2.50;;;2.30;;
7080;SDS011;3582;51.506;11.948;2024-01-16T02:17:53;2.33;;;1.43;;
7080;SDS011;3582;51.506;11.948;2024-01-16T02:20:19;4.70;;;2.20;;
7080;SDS011;3582;51.506;11.948;2024-01-16T02:22:45;4.78;;;1.90;;
7080;SDS011;3582;51.506;11.948;2024-01-16T02:25:13;1.98;;;1.88;;
7080;SDS011;3582;51.506;11.948;2024-01-16T02:27:39;2.60;;;1.70;;
7080;SDS011;3582;51.506;11.948;2024-01-16T02:30:05;1.80;;;1.27;;
7080;SDS011;3582;51.506;11.948;2024-01-16T02:32:31;2.55;;;1.80;;
7080;SDS011;3582;51.506;11.948;2024-01-16T02:34:57;4.20;;;1.70;;
7080;SDS011;3582;51.506;11.948;2024-01-16T02:37:23;4.50;;;2.00;;
7080;SDS011;3582;51.506;11.948;2024-01-16T02:39:49;3.05;;;2.30;;
7080;SDS011;3582;51.506;11.948;2024-01-16T02:42:15;1.80;;;1.50;;
7080;SDS011;3582;51.506;11.948;2024-01-16T02:44:41;2.70;;;2.00;;
7080;SDS011;3582;51.506;11.948;2024-01-16T02:47:07;4.67;;;2.50;;
7080;SDS011;3582;51.506;11.948;2024-01-16T02:49:33;2.33;;;1.63;;
7080;SDS011;3582;51.506;11.948;2024-01-16T02:52:01;3.38;;;2.42;;
7080;SDS011;3582;51.506;11.948;2024-01-16T02:54:28;2.88;;;1.48;;
7080;SDS011;3582;51.506;11.948;2024-01-16T02:56:54;4.93;;;2.20;;
7080;SDS011;3582;51.506;11.948;2024-01-16T02:59:20;2.13;;;1.60;;
7080;SDS011;3582;51.506;11.948;2024-01-16T03:01:46;2.23;;;1.50;;
7080;SDS011;3582;51.506;11.948;2024-01-16T03:04:12;4.40;;;2.20;;
7080;SDS011;3582;51.506;11.948;2024-01-16T03:06:37;3.10;;;2.00;;
7080;SDS011;3582;51.506;11.948;2024-01-16T03:09:04;3.72;;;1.50;;
7080;SDS011;3582;51.506;11.948;2024-01-16T03:11:30;2.42;;;2.10;;
7080;SDS011;3582;51.506;11.948;2024-01-16T03:13:58;1.33;;;1.25;;
7080;SDS011;3582;51.506;11.948;2024-01-16T03:16:24;3.47;;;2.20;;
7080;SDS011;3582;51.506;11.948;2024-01-16T03:18:50;1.45;;;1.35;;
7080;SDS011;3582;51.506;11.948;2024-01-16T03:21:16;2.15;;;1.65;;
7080;SDS011;3582;51.506;11.948;2024-01-16T03:23:42;2.97;;;2.28;;
7080;SDS011;3582;51.506;11.948;2024-01-16T03:26:12;7.72;;;2.40;;
7080;SDS011;3582;51.506;11.948;2024-01-16T03:28:38;3.22;;;1.63;;
7080;SDS011;3582;51.506;11.948;2024-01-16T03:31:04;3.70;;;2.50;;
7080;SDS011;3582;51.506;11.948;2024-01-16T03:33:31;2.83;;;2.10;;
7080;SDS011;3582;51.506;11.948;2024-01-16T03:35:57;1.80;;;1.70;;
7080;SDS011;3582;51.506;11.948;2024-01-16T03:38:23;2.33;;;1.97;;
7080;SDS011;3582;51.506;11.948;2024-01-16T03:40:48;2.07;;;1.90;;
7080;SDS011;3582;51.506;11.948;2024-01-16T03:43:14;9.00;;;3.10;;
7080;SDS011;3582;51.506;11.948;2024-01-16T03:45:40;2.27;;;1.73;;
7080;SDS011;3582;51.506;11.948;2024-01-16T03:48:07;8.73;;;2.28;;
7080;SDS011;3582;51.506;11.948;2024-01-16T03:50:33;2.40;;;1.92;;
7080;SDS011;3582;51.506;11.948;2024-01-16T03:53:00;2.10;;;1.60;;
7080;SDS011;3582;51.506;11.948;2024-01-16T03:55:26;2.90;;;1.80;;
7080;SDS011;3582;51.506;11.948;2024-01-16T03:57:52;2.93;;;2.17;;
7080;SDS011;3582;51.506;11.948;2024-01-16T04:00:18;5.43;;;2.50;;
7080;SDS011;3582;51.506;11.948;2024-01-16T04:02:44;6.23;;;2.07;;
7080;SDS011;3582;51.506;11.948;2024-01-16T04:05:11;4.60;;;2.83;;
7080;SDS011;3582;51.506;11.948;2024-01-16T04:07:36;4.53;;;1.57;;
7080;SDS011;3582;51.506;11.948;2024-01-16T04:10:02;6.73;;;2.00;;
7080;SDS011;3582;51.506;11.948;2024-01-16T04:12:30;6.50;;;2.30;;
7080;SDS011;3582;51.506;11.948;2024-01-16T04:14:56;5.87;;;2.30;;
7080;SDS011;3582;51.506;11.948;2024-01-16T04:17:22;2.00;;;1.80;;
7080;SDS011;3582;51.506;11.948;2024-01-16T04:19:48;4.03;;;2.60;;
7080;SDS011;3582;51.506;11.948;2024-01-16T04:22:13;3.77;;;2.47;;
7080;SDS011;3582;51.506;11.948;2024-01-16T04:24:39;2.40;;;2.27;;
7080;SDS011;3582;51.506;11.948;2024-01-16T04:27:05;2.47;;;2.27;;
7080;SDS011;3582;51.506;11.948;2024-01-16T04:29:31;4.47;;;2.17;;
7080;SDS011;3582;51.506;11.948;2024-01-16T04:31:57;8.40;;;3.10;;
7080;SDS011;3582;51.506;11.948;2024-01-16T04:34:24;2.72;;;2.33;;
7080;SDS011;3582;51.506;11.948;2024-01-16T04:36:50;4.10;;;2.50;;
7080;SDS011;3582;51.506;11.948;2024-01-16T04:39:16;6.30;;;3.00;;
7080;SDS011;3582;51.506;11.948;2024-01-16T04:41:42;3.92;;;2.55;;
7080;SDS011;3582;51.506;11.948;2024-01-16T04:44:08;4.20;;;3.08;;
7080;SDS011;3582;51.506;11.948;2024-01-16T04:46:34;5.90;;;3.30;;
7080;SDS011;3582;51.506;11.948;2024-01-16T04:49:00;6.87;;;3.43;;
7080;SDS011;3582;51.506;11.948;2024-01-16T04:51:27;3.63;;;3.25;;
7080;SDS011;3582;51.506;11.948;2024-01-16T04:53:52;4.27;;;3.10;;
7080;SDS011;3582;51.506;11.948;2024-01-16T04:56:18;4.60;;;3.80;;
7080;SDS011;3582;51.506;11.948;2024-01-16T04:58:45;3.67;;;3.33;;
7080;SDS011;3582;51.506;11.948;2024-01-16T05:01:12;4.70;;;3.35;;
7080;SDS011;3582;51.506;11.948;2024-01-16T05:03:38;3.78;;;2.92;;
7080;SDS011;3582;51.506;11.948;2024-01-16T05:06:04;5.03;;;3.20;;
7080;SDS011;3582;51.506;11.948;2024-01-16T05:08:30;11.13;;;3.40;;
7080;SDS011;3582;51.506;11.948;2024-01-16T05:10:56;3.63;;;3.33;;
7080;SDS011;3582;51.506;11.948;2024-01-16T05:13:22;5.55;;;4.50;;
7080;SDS011;3582;51.506;11.948;2024-01-16T05:15:48;3.53;;;3.23;;
7080;SDS011;3582;51.506;11.948;2024-01-16T05:18:14;8.20;;;3.13;;
7080;SDS011;3582;51.506;11.948;2024-01-16T05:20:40;5.17;;;3.40;;
7080;SDS011;3582;51.506;11.948;2024-01-16T05:23:06;5.33;;;3.73;;
7080;SDS011;3582;51.506;11.948;2024-01-16T05:25:32;4.00;;;2.83;;
7080;SDS011;3582;51.506;11.948;2024-01-16T05:27:58;6.97;;;2.70;;
7080;SDS011;3582;51.506;11.948;2024-01-16T05:30:24;4.57;;;3.27;;
7080;SDS011;3582;51.506;11.948;2024-01-16T05:32:49;6.87;;;3.20;;
7080;SDS011;3582;51.506;11.948;2024-01-16T05:35:17;3.58;;;3.30;;
7080;SDS011;3582;51.506;11.948;2024-01-16T05:37:42;3.80;;;3.43;;
7080;SDS011;3582;51.506;11.948;2024-01-16T05:40:09;5.73;;;3.57;;
7080;SDS011;3582;51.506;11.948;2024-01-16T05:42:35;6.78;;;3.25;;
7080;SDS011;3582;51.506;11.948;2024-01-16T05:45:01;9.07;;;3.43;;
7080;SDS011;3582;51.506;11.948;2024-01-16T05:47:27;5.25;;;3.38;;
7080;SDS011;3582;51.506;11.948;2024-01-16T05:49:55;3.97;;;2.88;;
7080;SDS011;3582;51.506;11.948;2024-01-16T05:52:21;13.63;;;4.07;;
7080;SDS011;3582;51.506;11.948;2024-01-16T05:54:47;4.80;;;3.78;;
7080;SDS011;3582;51.506;11.948;2024-01-16T05:57:13;6.13;;;4.23;;
7080;SDS011;3582;51.506;11.948;2024-01-16T05:59:39;3.60;;;3.30;;
7080;SDS011;3582;51.506;11.948;2024-01-16T06:02:06;3.63;;;3.35;;
7080;SDS011;3582;51.506;11.948;2024-01-16T06:04:32;12.98;;;3.97;;
7080;SDS011;3582;51.506;11.948;2024-01-16T06:06:58;4.57;;;3.33;;
7080;SDS011;3582;51.506;11.948;2024-01-16T06:09:24;7.33;;;3.67;;
7080;SDS011;3582;51.506;11.948;2024-01-16T06:11:50;6.70;;;3.10;;
7080;SDS011;3582;51.506;11.948;2024-01-16T06:14:16;5.27;;;2.73;;
7080;SDS011;3582;51.506;11.948;2024-01-16T06:16:46;4.68;;;3.63;;
7080;SDS011;3582;51.506;11.948;2024-01-16T06:19:13;6.20;;;3.28;;
7080;SDS011;3582;51.506;11.948;2024-01-16T06:21:39;6.78;;;3.95;;
7080;SDS011;3582;51.506;11.948;2024-01-16T06:24:05;8.67;;;4.17;;
7080;SDS011;3582;51.506;11.948;2024-01-16T06:26:32;3.58;;;2.88;;
7080;SDS011;3582;51.506;11.948;2024-01-16T06:28:58;5.43;;;2.60;;
7080;SDS011;3582;51.506;11.948;2024-01-16T06:31:24;3.87;;;3.47;;
7080;SDS011;3582;51.506;11.948;2024-01-16T06:33:51;4.05;;;3.55;;
7080;SDS011;3582;51.506;11.948;2024-01-16T06:36:17;8.57;;;4.35;;
7080;SDS011;3582;51.506;11.948;2024-01-16T06:38:43;8.93;;;4.32;;
7080;SDS011;3582;51.506;11.948;2024-01-16T06:41:09;5.07;;;3.57;;
7080;SDS011;3582;51.506;11.948;2024-01-16T06:43:35;11.27;;;4.57;;
7080;SDS011;3582;51.506;11.948;2024-01-16T06:46:01;6.70;;;4.00;;
7080;SDS011;3582;51.506;11.948;2024-01-16T06:48:26;6.00;;;5.10;;
7080;SDS011;3582;51.506;11.948;2024-01-16T06:50:52;17.53;;;6.03;;
7080;SDS011;3582;51.506;11.948;2024-01-16T06:53:18;7.33;;;4.53;;
7080;SDS011;3582;51.506;11.948;2024-01-16T06:55:44;10.13;;;5.80;;
7080;SDS011;3582;51.506;11.948;2024-01-16T06:58:10;6.22;;;4.72;;
7080;SDS011;3582;51.506;11.948;2024-01-16T07:00:36;6.50;;;5.25;;
7080;SDS011;3582;51.506;11.948;2024-01-16T07:03:02;7.97;;;6.17;;
7080;SDS011;3582;51.506;11.948;2024-01-16T07:05:29;5.45;;;4.72;;
7080;SDS011;3582;51.506;11.948;2024-01-16T07:07:55;6.67;;;5.70;;
7080;SDS011;3582;51.506;11.948;2024-01-16T07:10:21;7.50;;;5.60;;
7080;SDS011;3582;51.506;11.948;2024-01-16T07:12:48;12.13;;;4.95;;
7080;SDS011;3582;51.506;11.948;2024-01-16T07:15:14;6.25;;;5.63;;
7080;SDS011;3582;51.506;11.948;2024-01-16T07:17:40;9.70;;;6.38;;
7080;SDS011;3582;51.506;11.948;2024-01-16T07:20:06;10.98;;;5.70;;
7080;SDS011;3582;51.506;11.948;2024-01-16T07:22:33;11.98;;;5.30;;
7080;SDS011;3582;51.506;11.948;2024-01-16T07:24:59;19.55;;;6.32;;
7080;SDS011;3582;51.506;11.948;2024-01-16T07:27:25;12.23;;;6.60;;
7080;SDS011;3582;51.506;11.948;2024-01-16T07:29:51;9.07;;;5.77;;
7080;SDS011;3582;51.506;11.948;2024-01-16T07:32:17;10.00;;;5.53;;
7080;SDS011;3582;51.506;11.948;2024-01-16T07:34:43;10.63;;;5.80;;
7080;SDS011;3582;51.506;11.948;2024-01-16T07:37:09;10.48;;;5.57;;
7080;SDS011;3582;51.506;11.948;2024-01-16T07:39:35;6.15;;;5.30;;
7080;SDS011;3582;51.506;11.948;2024-01-16T07:42:01;9.13;;;6.27;;
7080;SDS011;3582;51.506;11.948;2024-01-16T07:44:27;11.70;;;5.93;;
7080;SDS011;3582;51.506;11.948;2024-01-16T07:46:53;9.87;;;6.27;;
7080;SDS011;3582;51.506;11.948;2024-01-16T07:49:18;10.93;;;6.30;;
7080;SDS011;3582;51.506;11.948;2024-01-16T07:51:44;11.30;;;5.90;;
7080;SDS011;3582;51.506;11.948;2024-01-16T07:54:10;15.80;;;6.20;;
7080;SDS011;3582;51.506;11.948;2024-01-16T07:56:38;9.63;;;5.95;;
7080;SDS011;3582;51.506;11.948;2024-01-16T07:59:04;14.48;;;6.22;;
7080;SDS011;3582;51.506;11.948;2024-01-16T08:01:30;11.52;;;5.65;;
7080;SDS011;3582;51.506;11.948;2024-01-16T08:03:57;9.27;;;6.25;;
7080;SDS011;3582;51.506;11.948;2024-01-16T08:06:23;9.02;;;5.72;;
7080;SDS011;3582;51.506;11.948;2024-01-16T08:08:49;10.37;;;7.60;;
7080;SDS011;3582;51.506;11.948;2024-01-16T08:11:15;7.07;;;5.10;;
7080;SDS011;3582;51.506;11.948;2024-01-16T08:13:41;8.25;;;5.15;;
7080;SDS011;3582;51.506;11.948;2024-01-16T08:16:07;9.33;;;5.20;;
7080;SDS011;3582;51.506;11.948;2024-01-16T08:18:33;7.30;;;4.50;;
7080;SDS011;3582;51.506;11.948;2024-01-16T08:20:59;7.72;;;5.18;;
7080;SDS011;3582;51.506;11.948;2024-01-16T08:23:25;10.32;;;5.30;;
7080;SDS011;3582;51.506;11.948;2024-01-16T08:25:52;7.03;;;5.10;;
7080;SDS011;3582;51.506;11.948;2024-01-16T08:28:18;8.87;;;4.83;;
7080;SDS011;3582;51.506;11.948;2024-01-16T08:30:44;8.20;;;5.15;;
7080;SDS011;3582;51.506;11.948;2024-01-16T08:33:11;12.00;;;4.93;;
7080;SDS011;3582;51.506;11.948;2024-01-16T08:35:37;12.10;;;5.38;;
7080;SDS011;3582;51.506;11.948;2024-01-16T08:38:03;4.33;;;3.93;;
7080;SDS011;3582;51.506;11.948;2024-01-16T08:40:29;6.88;;;5.05;;
7080;SDS011;3582;51.506;11.948;2024-01-16T08:42:55;6.53;;;4.50;;
7080;SDS011;3582;51.506;11.948;2024-01-16T08:45:21;4.68;;;4.15;;
7080;SDS011;3582;51.506;11.948;2024-01-16T08:47:47;12.05;;;5.28;;
7080;SDS011;3582;51.506;11.948;2024-01-16T08:50:14;10.80;;;5.18;;
7080;SDS011;3582;51.506;11.948;2024-01-16T08:52:40;6.10;;;5.47;;
7080;SDS011;3582;51.506;11.948;2024-01-16T08:55:07;9.38;;;4.72;;
7080;SDS011;3582;51.506;11.948;2024-01-16T08:57:33;8.82;;;5.00;;
7080;SDS011;3582;51.506;11.948;2024-01-16T08:59:59;8.87;;;4.60;;
7080;SDS011;3582;51.506;11.948;2024-01-16T09:02:25;11.20;;;4.77;;
7080;SDS011;3582;51.506;11.948;2024-01-16T09:04:54;6.70;;;5.00;;
7080;SDS011;3582;51.506;11.948;2024-01-16T09:07:20;6.05;;;4.30;;
7080;SDS011;3582;51.506;11.948;2024-01-16T09:09:46;5.60;;;5.00;;
7080;SDS011;3582;51.506;11.948;2024-01-16T09:12:12;12.00;;;4.80;;
7080;SDS011;3582;51.506;11.948;2024-01-16T09:14:38;6.97;;;4.85;;
7080;SDS011;3582;51.506;11.948;2024-01-16T09:17:06;10.30;;;4.97;;
7080;SDS011;3582;51.506;11.948;2024-01-16T09:19:32;9.67;;;4.27;;
7080;SDS011;3582;51.506;11.948;2024-01-16T09:21:58;10.30;;;5.40;;
7080;SDS011;3582;51.506;11.948;2024-01-16T09:24:24;5.23;;;4.43;;
7080;SDS011;3582;51.506;11.948;2024-01-16T09:26:49;10.67;;;4.83;;
7080;SDS011;3582;51.506;11.948;2024-01-16T09:29:15;8.40;;;5.10;;
7080;SDS011;3582;51.506;11.948;2024-01-16T09:31:41;8.00;;;3.97;;
7080;SDS011;3582;51.506;11.948;2024-01-16T09:34:07;9.10;;;5.60;;
7080;SDS011;3582;51.506;11.948;2024-01-16T09:36:33;10.77;;;5.20;;
7080;SDS011;3582;51.506;11.948;2024-01-16T09:39:04;10.00;;;4.68;;
7080;SDS011;3582;51.506;11.948;2024-01-16T09:41:32;12.70;;;5.10;;
7080;SDS011;3582;51.506;11.948;2024-01-16T09:43:59;3.88;;;3.58;;
7080;SDS011;3582;51.506;11.948;2024-01-16T09:46:25;11.05;;;5.63;;
7080;SDS011;3582;51.506;11.948;2024-01-16T09:48:52;9.32;;;5.22;;
7080;SDS011;3582;51.506;11.948;2024-01-16T09:51:19;9.35;;;4.63;;
7080;SDS011;3582;51.506;11.948;2024-01-16T09:53:45;9.40;;;4.73;;
7080;SDS011;3582;51.506;11.948;2024-01-16T09:56:13;7.80;;;5.00;;
7080;SDS011;3582;51.506;11.948;2024-01-16T09:58:40;11.40;;;4.65;;
7080;SDS011;3582;51.506;11.948;2024-01-16T10:01:06;8.00;;;4.45;;
7080;SDS011;3582;51.506;11.948;2024-01-16T10:03:33;8.73;;;4.28;;
7080;SDS011;3582;51.506;11.948;2024-01-16T10:06:02;9.85;;;4.50;;
7080;SDS011;3582;51.506;11.948;2024-01-16T10:08:29;13.20;;;5.03;;
7080;SDS011;3582;51.506;11.948;2024-01-16T10:10:56;7.47;;;4.80;;
7080;SDS011;3582;51.506;11.948;2024-01-16T10:13:22;12.30;;;7.50;;
7080;SDS011;3582;51.506;11.948;2024-01-16T10:15:52;7.37;;;4.50;;
7080;SDS011;3582;51.506;11.948;2024-01-16T10:18:23;7.05;;;4.60;;
7080;SDS011;3582;51.506;11.948;2024-01-16T10:20:49;12.18;;;4.18;;
7080;SDS011;3582;51.506;11.948;2024-01-16T10:23:27;6.35;;;4.85;;
7080;SDS011;3582;51.506;11.948;2024-01-16T10:26:26;4.47;;;3.70;;
7080;SDS011;3582;51.506;11.948;2024-01-16T10:28:45;11.38;;;4.50;;
7080;SDS011;3582;51.506;11.948;2024-01-16T10:31:11;5.00;;;4.10;;
7080;SDS011;3582;51.506;11.948;2024-01-16T10:33:39;7.00;;;4.53;;
7080;SDS011;3582;51.506;11.948;2024-01-16T10:38:35;6.95;;;5.15;;
7080;SDS011;3582;51.506;11.948;2024-01-16T10:41:11;5.97;;;5.20;;
7080;SDS011;3582;51.506;11.948;2024-01-16T10:43:37;13.48;;;4.90;;
7080;SDS011;3582;51.506;11.948;2024-01-16T10:46:07;11.98;;;3.95;;
7080;SDS011;3582;51.506;11.948;2024-01-16T10:48:34;8.20;;;4.65;;
7080;SDS011;3582;51.506;11.948;2024-01-16T10:51:00;11.30;;;5.22;;
7080;SDS011;3582;51.506;11.948;2024-01-16T10:53:26;5.35;;;4.22;;
7080;SDS011;3582;51.506;11.948;2024-01-16T10:55:53;5.47;;;4.22;;
7080;SDS011;3582;51.506;11.948;2024-01-16T10:58:23;9.27;;;4.20;;
7080;SDS011;3582;51.506;11.948;2024-01-16T11:00:52;5.50;;;3.70;;
7080;SDS011;3582;51.506;11.948;2024-01-16T11:06:04;7.20;;;3.70;;
7080;SDS011;3582;51.506;11.948;2024-01-16T11:08:31;5.10;;;4.55;;
7080;SDS011;3582;51.506;11.948;2024-01-16T11:11:01;9.20;;;3.92;;
7080;SDS011;3582;51.506;11.948;2024-01-16T11:13:28;7.55;;;4.47;;
7080;SDS011;3582;51.506;11.948;2024-01-16T11:15:54;8.90;;;5.10;;
7080;SDS011;3582;51.506;11.948;2024-01-16T11:18:21;7.68;;;4.55;;
7080;SDS011;3582;51.506;11.948;2024-01-16T11:20:47;9.27;;;4.57;;
7080;SDS011;3582;51.506;11.948;2024-01-16T11:23:13;6.50;;;3.80;;
7080;SDS011;3582;51.506;11.948;2024-01-16T11:25:39;7.05;;;5.18;;
7080;SDS011;3582;51.506;11.948;2024-01-16T11:30:35;7.57;;;5.82;;
7080;SDS011;3582;51.506;11.948;2024-01-16T11:33:01;6.37;;;4.33;;
7080;SDS011;3582;51.506;11.948;2024-01-16T11:35:33;6.38;;;4.28;;
7080;SDS011;3582;51.506;11.948;2024-01-16T11:38:06;7.97;;;4.68;;
7080;SDS011;3582;51.506;11.948;2024-01-16T11:40:33;4.40;;;3.85;;
7080;SDS011;3582;51.506;11.948;2024-01-16T11:42:59;7.07;;;4.95;;
7080;SDS011;3582;51.506;11.948;2024-01-16T11:45:48;10.02;;;5.35;;
7080;SDS011;3582;51.506;11.948;2024-01-16T11:48:15;7.72;;;4.30;;
7080;SDS011;3582;51.506;11.948;2024-01-16T11:50:41;8.48;;;5.18;;
7080;SDS011;3582;51.506;11.948;2024-01-16T11:53:08;4.90;;;4.43;;
7080;SDS011;3582;51.506;11.948;2024-01-16T11:55:35;7.23;;;4.53;;
7080;SDS011;3582;51.506;11.948;2024-01-16T12:00:40;11.68;;;5.32;;
7080;SDS011;3582;51.506;11.948;2024-01-16T12:03:15;8.75;;;6.55;;
7080;SDS011;3582;51.506;11.948;2024-01-16T12:05:43;4.90;;;4.43;;
7080;SDS011;3582;51.506;11.948;2024-01-16T12:08:09;6.00;;;4.30;;
7080;SDS011;3582;51.506;11.948;2024-01-16T12:10:37;10.00;;;4.90;;
7080;SDS011;3582;51.506;11.948;2024-01-16T12:13:11;8.68;;;4.93;;
7080;SDS011;3582;51.506;11.948;2024-01-16T12:15:37;10.38;;;4.50;;
7080;SDS011;3582;51.506;11.948;2024-01-16T12:18:03;5.80;;;4.83;;
7080;SDS011;3582;51.506;11.948;2024-01-16T12:20:30;6.93;;;4.90;;
7080;SDS011;3582;51.506;11.948;2024-01-16T12:23:06;9.48;;;5.00;;
7080;SDS011;3582;51.506;11.948;2024-01-16T12:25:33;8.30;;;6.25;;
7080;SDS011;3582;51.506;11.948;2024-01-16T12:28:00;5.28;;;4.60;;
7080;SDS011;3582;51.506;11.948;2024-01-16T12:30:26;9.13;;;4.82;;
7080;SDS011;3582;51.506;11.948;2024-01-16T12:33:05;7.93;;;6.30;;
7080;SDS011;3582;51.506;11.948;2024-01-16T12:35:32;14.43;;;5.90;;
7080;SDS011;3582;51.506;11.948;2024-01-16T12:37:59;6.93;;;6.25;;
7080;SDS011;3582;51.506;11.948;2024-01-16T12:40:25;8.68;;;6.20;;
7080;SDS011;3582;51.506;11.948;2024-01-16T12:42:51;8.77;;;5.67;;
7080;SDS011;3582;51.506;11.948;2024-01-16T12:45:18;8.93;;;5.82;;
7080;SDS011;3582;51.506;11.948;2024-01-16T12:47:49;17.73;;;10.10;;
7080;SDS011;3582;51.506;11.948;2024-01-16T12:50:22;17.63;;;7.10;;
7080;SDS011;3582;51.506;11.948;2024-01-16T12:52:49;27.85;;;9.05;;
7080;SDS011;3582;51.506;11.948;2024-01-16T12:55:15;33.25;;;9.07;;
7080;SDS011;3582;51.506;11.948;2024-01-16T12:57:42;16.13;;;8.95;;
7080;SDS011;3582;51.506;11.948;2024-01-16T13:00:23;14.35;;;6.65;;
7080;SDS011;3582;51.506;11.948;2024-01-16T13:02:50;7.13;;;6.40;;
7080;SDS011;3582;51.506;11.948;2024-01-16T13:05:17;15.15;;;7.75;;
7080;SDS011;3582;51.506;11.948;2024-01-16T13:07:43;13.27;;;6.90;;
7080;SDS011;3582;51.506;11.948;2024-01-16T13:10:09;8.73;;;6.57;;
7080;SDS011;3582;51.506;11.948;2024-01-16T13:12:43;22.48;;;7.93;;
7080;SDS011;3582;51.506;11.948;2024-01-16T13:15:09;15.73;;;8.20;;
7080;SDS011;3582;51.506;11.948;2024-01-16T13:17:36;22.23;;;9.38;;
7080;SDS011;3582;51.506;11.948;2024-01-16T13:20:02;10.43;;;6.40;;
7080;SDS011;3582;51.506;11.948;2024-01-16T13:22:35;14.50;;;7.13;;
7080;SDS011;3582;51.506;11.948;2024-01-16T13:25:01;18.33;;;8.10;;
7080;SDS011;3582;51.506;11.948;2024-01-16T13:27:27;13.88;;;6.68;;
7080;SDS011;3582;51.506;11.948;2024-01-16T13:29:55;19.20;;;7.43;;
7080;SDS011;3582;51.506;11.948;2024-01-16T13:32:21;13.65;;;6.70;;
7080;SDS011;3582;51.506;11.948;2024-01-16T13:34:47;10.50;;;6.60;;
7080;SDS011;3582;51.506;11.948;2024-01-16T13:37:19;10.70;;;6.80;;
7080;SDS011;3582;51.506;11.948;2024-01-16T13:39:46;31.15;;;11.35;;
7080;SDS011;3582;51.506;11.948;2024-01-16T13:42:12;21.43;;;8.53;;
7080;SDS011;3582;51.506;11.948;2024-01-16T13:44:40;19.80;;;8.80;;
7080;SDS011;3582;51.506;11.948;2024-01-16T13:47:06;14.30;;;7.33;;
7080;SDS011;3582;51.506;11.948;2024-01-16T13:49:32;14.70;;;8.27;;
7080;SDS011;3582;51.506;11.948;2024-01-16T13:51:58;24.37;;;8.00;;
7080;SDS011;3582;51.506;11.948;2024-01-16T13:54:24;8.43;;;7.00;;
7080;SDS011;3582;51.506;11.948;2024-01-16T13:56:51;11.98;;;10.70;;
7080;SDS011;3582;51.506;11.948;2024-01-16T13:59:17;12.80;;;7.72;;
7080;SDS011;3582;51.506;11.948;2024-01-16T14:01:43;12.97;;;7.40;;
7080;SDS011;3582;51.506;11.948;2024-01-16T14:04:09;19.58;;;8.27;;
7080;SDS011;3582;51.506;11.948;2024-01-16T14:06:35;10.53;;;7.63;;
7080;SDS011;3582;51.506;11.948;2024-01-16T14:09:01;14.77;;;7.47;;
7080;SDS011;3582;51.506;11.948;2024-01-16T14:11:27;42.15;;;11.40;;
7080;SDS011;3582;51.506;11.948;2024-01-16T14:13:53;92.07;;;21.63;;
7080;SDS011;3582;51.506;11.948;2024-01-16T14:16:19;20.77;;;8.77;;
7080;SDS011;3582;51.506;11.948;2024-01-16T14:18:46;11.05;;;7.78;;
7080;SDS011;3582;51.506;11.948;2024-01-16T14:21:12;14.50;;;7.27;;
7080;SDS011;3582;51.506;11.948;2024-01-16T14:23:38;32.77;;;10.27;;
7080;SDS011;3582;51.506;11.948;2024-01-16T14:26:04;27.23;;;9.05;;
7080;SDS011;3582;51.506;11.948;2024-01-16T14:28:30;10.03;;;7.63;;
7080;SDS011;3582;51.506;11.948;2024-01-16T14:30:57;16.70;;;7.80;;
7080;SDS011;3582;51.506;11.948;2024-01-16T14:33:22;23.23;;;11.80;;
7080;SDS011;3582;51.506;11.948;2024-01-16T14:35:48;21.23;;;8.60;;
7080;SDS011;3582;51.506;11.948;2024-01-16T14:38:14;29.47;;;9.90;;
7080;SDS011;3582;51.506;11.948;2024-01-16T14:40:40;21.33;;;9.03;;
7080;SDS011;3582;51.506;11.948;2024-01-16T14:43:06;14.73;;;7.90;;
7080;SDS011;3582;51.506;11.948;2024-01-16T14:45:33;13.57;;;7.45;;
7080;SDS011;3582;51.506;11.948;2024-01-16T14:47:59;19.10;;;6.93;;
7080;SDS011;3582;51.506;11.948;2024-01-16T14:50:25;19.80;;;8.57;;
7080;SDS011;3582;51.506;11.948;2024-01-16T14:52:51;8.30;;;6.00;;
7080;SDS011;3582;51.506;11.948;2024-01-16T14:55:17;29.70;;;8.80;;
7080;SDS011;3582;51.506;11.948;2024-01-16T14:57:45;12.82;;;8.13;;
7080;SDS011;3582;51.506;11.948;2024-01-16T15:00:15;50.50;;;10.57;;
7080;SDS011;3582;51.506;11.948;2024-01-16T15:02:52;11.77;;;6.80;;
7080;SDS011;3582;51.506;11.948;2024-01-16T15:05:19;13.15;;;7.38;;